sensor_id;sensor_type;location;lat;lon;timestamp;pressure;altitude;pressure_sealevel;temperature;humidity
12951;BME280;6540;50.858;7.232;2024-01-10T00:00:12;51995.75;;;-142.34;30.33
12951;BME280;6540;50.858;7.232;2024-01-10T00:02:38;51951.38;;;-142.34;30.36
12951;BME280;6540;50.858;7.232;2024-01-10T00:05:04;51983.66;;;-142.34;30.58
12951;BME280;6540;50.858;7.232;2024-01-10T00:07:29;52007.84;;;-142.34;30.83
12951;BME280;6540;50.858;7.232;2024-01-10T00:09:54;51995.75;;;-142.34;30.78
12951;BME280;6540;50.858;7.232;2024-01-10T00:12:21;51995.75;;;-142.34;30.43
12951;BME280;6540;50.858;7.232;2024-01-10T00:14:46;52036.09;;;-142.34;30.58
12951;BME280;6540;50.858;7.232;2024-01-10T00:17:11;51979.63;;;-142.34;31.65
12951;BME280;6540;50.858;7.232;2024-01-10T00:19:37;51939.28;;;-142.34;30.88
12951;BME280;6540;50.858;7.232;2024-01-10T00:22:03;51995.75;;;-142.34;30.58
12951;BME280;6540;50.858;7.232;2024-01-10T00:24:28;52044.19;;;-142.34;30.30
12951;BME280;6540;50.858;7.232;2024-01-10T00:26:53;52011.91;;;-142.34;30.34
12951;BME280;6540;50.858;7.232;2024-01-10T00:29:19;51999.78;;;-142.34;30.21
12951;BME280;6540;50.858;7.232;2024-01-10T00:31:44;52005.84;;;-142.34;30.23
12951;BME280;6540;50.858;7.232;2024-01-10T00:34:09;52019.97;;;-142.34;29.77
12951;BME280;6540;50.858;7.232;2024-01-10T00:36:35;52028.03;;;-142.34;30.30
12951;BME280;6540;50.858;7.232;2024-01-10T00:39:00;52019.97;;;-142.34;31.17
12951;BME280;6540;50.858;7.232;2024-01-10T00:41:26;52032.06;;;-142.34;30.48
12951;BME280;6540;50.858;7.232;2024-01-10T00:43:51;52019.97;;;-142.34;30.63
12951;BME280;6540;50.858;7.232;2024-01-10T00:46:17;52044.19;;;-142.34;30.21
12951;BME280;6540;50.858;7.232;2024-01-10T00:48:42;51999.78;;;-142.34;30.20
12951;BME280;6540;50.858;7.232;2024-01-10T00:51:07;52040.13;;;-142.34;30.93
12951;BME280;6540;50.858;7.232;2024-01-10T00:53:37;52015.94;;;-142.34;31.56
12951;BME280;6540;50.858;7.232;2024-01-10T00:56:06;52013.91;;;-142.34;31.79
12951;BME280;6540;50.858;7.232;2024-01-10T00:58:31;51983.66;;;-142.34;30.93
12951;BME280;6540;50.858;7.232;2024-01-10T01:00:57;52003.81;;;-142.34;30.37
12951;BME280;6540;50.858;7.232;2024-01-10T01:03:25;51993.75;;;-142.34;31.45
12951;BME280;6540;50.858;7.232;2024-01-10T01:05:50;52030.06;;;-142.34;30.33
12951;BME280;6540;50.858;7.232;2024-01-10T01:08:16;51991.72;;;-142.34;29.75
12951;BME280;6540;50.858;7.232;2024-01-10T01:10:41;51999.78;;;-142.34;31.05
12951;BME280;6540;50.858;7.232;2024-01-10T01:13:06;51987.69;;;-142.34;31.42
12951;BME280;6540;50.858;7.232;2024-01-10T01:15:32;52017.94;;;-142.34;30.17
12951;BME280;6540;50.858;7.232;2024-01-10T01:17:57;51999.78;;;-142.34;30.09
12951;BME280;6540;50.858;7.232;2024-01-10T01:20:23;52003.81;;;-142.34;30.49
12951;BME280;6540;50.858;7.232;2024-01-10T01:22:48;51991.72;;;-142.34;30.17
12951;BME280;6540;50.858;7.232;2024-01-10T01:25:13;51987.69;;;-142.34;30.24
12951;BME280;6540;50.858;7.232;2024-01-10T01:27:39;52017.94;;;-142.34;30.00
12951;BME280;6540;50.858;7.232;2024-01-10T01:30:05;52028.03;;;-142.34;30.60
12951;BME280;6540;50.858;7.232;2024-01-10T01:32:30;51987.69;;;-142.34;29.72
12951;BME280;6540;50.858;7.232;2024-01-10T01:34:56;51987.69;;;-142.34;30.22
12951;BME280;6540;50.858;7.232;2024-01-10T01:37:23;51959.44;;;-142.34;30.16
12951;BME280;6540;50.858;7.232;2024-01-10T01:39:49;52009.88;;;-142.34;30.50
12951;BME280;6540;50.858;7.232;2024-01-10T01:42:15;52026.03;;;-142.34;29.92
12951;BME280;6540;50.858;7.232;2024-01-10T01:44:40;52011.91;;;-142.34;30.06
12951;BME280;6540;50.858;7.232;2024-01-10T01:47:06;51993.75;;;-142.34;30.72
12951;BME280;6540;50.858;7.232;2024-01-10T01:49:31;51999.78;;;-142.34;30.08
12951;BME280;6540;50.858;7.232;2024-01-10T01:51:57;52028.03;;;-142.34;30.05
12951;BME280;6540;50.858;7.232;2024-01-10T01:54:25;51987.69;;;-142.34;30.33
12951;BME280;6540;50.858;7.232;2024-01-10T01:56:51;52028.03;;;-142.34;30.48
12951;BME280;6540;50.858;7.232;2024-01-10T01:59:17;52005.84;;;-142.34;30.42
12951;BME280;6540;50.858;7.232;2024-01-10T02:01:43;52024.00;;;-142.34;31.33
12951;BME280;6540;50.858;7.232;2024-01-10T02:04:08;52011.91;;;-142.34;31.04
12951;BME280;6540;50.858;7.232;2024-01-10T02:06:34;52032.06;;;-142.34;30.06
12951;BME280;6540;50.858;7.232;2024-01-10T02:09:00;52019.97;;;-142.34;29.92
12951;BME280;6540;50.858;7.232;2024-01-10T02:11:26;51991.72;;;-142.34;31.06
12951;BME280;6540;50.858;7.232;2024-01-10T02:13:52;51983.66;;;-142.34;30.69
12951;BME280;6540;50.858;7.232;2024-01-10T02:16:21;51975.59;;;-142.34;30.59
12951;BME280;6540;50.858;7.232;2024-01-10T02:18:48;52003.81;;;-142.34;30.30
12951;BME280;6540;50.858;7.232;2024-01-10T02:21:14;52017.94;;;-142.34;30.99
12951;BME280;6540;50.858;7.232;2024-01-10T02:23:39;51999.78;;;-142.34;32.92
12951;BME280;6540;50.858;7.232;2024-01-10T02:26:05;51983.66;;;-142.34;31.28
12951;BME280;6540;50.858;7.232;2024-01-10T02:28:31;51995.75;;;-142.34;30.83
12951;BME280;6540;50.858;7.232;2024-01-10T02:30:57;51955.41;;;-142.34;30.44
12951;BME280;6540;50.858;7.232;2024-01-10T02:33:22;51985.66;;;-142.34;31.43
12951;BME280;6540;50.858;7.232;2024-01-10T02:35:48;51991.72;;;-142.34;30.44
12951;BME280;6540;50.858;7.232;2024-01-10T02:38:13;51975.59;;;-142.34;31.90
12951;BME280;6540;50.858;7.232;2024-01-10T02:40:38;51985.66;;;-142.34;30.96
12951;BME280;6540;50.858;7.232;2024-01-10T02:43:04;52021.97;;;-142.34;30.55
12951;BME280;6540;50.858;7.232;2024-01-10T02:45:29;51999.78;;;-142.34;32.21
12951;BME280;6540;50.858;7.232;2024-01-10T02:47:54;51973.56;;;-142.34;31.35
12951;BME280;6540;50.858;7.232;2024-01-10T02:50:20;51997.78;;;-142.34;31.00
12951;BME280;6540;50.858;7.232;2024-01-10T02:52:45;51957.44;;;-142.34;30.52
12951;BME280;6540;50.858;7.232;2024-01-10T02:55:11;51981.63;;;-142.34;30.81
12951;BME280;6540;50.858;7.232;2024-01-10T02:57:36;51955.41;;;-142.34;30.53
12951;BME280;6540;50.858;7.232;2024-01-10T03:00:02;52011.91;;;-142.34;30.70
12951;BME280;6540;50.858;7.232;2024-01-10T03:02:29;52015.94;;;-142.34;30.78
12951;BME280;6540;50.858;7.232;2024-01-10T03:04:54;52013.91;;;-142.34;30.17
12951;BME280;6540;50.858;7.232;2024-01-10T03:07:20;52021.97;;;-142.34;30.12
12951;BME280;6540;50.858;7.232;2024-01-10T03:09:45;51979.63;;;-142.34;30.36
12951;BME280;6540;50.858;7.232;2024-01-10T03:12:11;51971.53;;;-142.34;30.67
12951;BME280;6540;50.858;7.232;2024-01-10T03:14:37;51979.63;;;-142.34;30.04
12951;BME280;6540;50.858;7.232;2024-01-10T03:17:02;52011.91;;;-142.34;30.72
12951;BME280;6540;50.858;7.232;2024-01-10T03:19:28;52007.84;;;-142.34;30.46
12951;BME280;6540;50.858;7.232;2024-01-10T03:21:53;52024.00;;;-142.34;30.40
12951;BME280;6540;50.858;7.232;2024-01-10T03:24:19;52019.97;;;-142.34;30.38
12951;BME280;6540;50.858;7.232;2024-01-10T03:26:44;52032.06;;;-142.34;30.39
12951;BME280;6540;50.858;7.232;2024-01-10T03:29:10;52030.06;;;-142.34;31.45
12951;BME280;6540;50.858;7.232;2024-01-10T03:31:35;51975.59;;;-142.34;31.28
12951;BME280;6540;50.858;7.232;2024-01-10T03:34:00;52015.94;;;-142.34;31.02
12951;BME280;6540;50.858;7.232;2024-01-10T03:36:26;52011.91;;;-142.34;31.00
12951;BME280;6540;50.858;7.232;2024-01-10T03:38:51;51991.72;;;-142.34;30.60
12951;BME280;6540;50.858;7.232;2024-01-10T03:41:18;52003.81;;;-142.34;30.77
12951;BME280;6540;50.858;7.232;2024-01-10T03:43:43;52028.03;;;-142.34;29.77
12951;BME280;6540;50.858;7.232;2024-01-10T03:46:10;51979.63;;;-142.34;30.56
12951;BME280;6540;50.858;7.232;2024-01-10T03:48:36;52026.03;;;-142.34;30.24
12951;BME280;6540;50.858;7.232;2024-01-10T03:51:02;52013.91;;;-142.34;30.48
12951;BME280;6540;50.858;7.232;2024-01-10T03:53:28;52007.84;;;-142.34;30.38
12951;BME280;6540;50.858;7.232;2024-01-10T03:55:53;51991.72;;;-142.34;31.01
12951;BME280;6540;50.858;7.232;2024-01-10T03:58:20;52007.84;;;-142.34;31.23
12951;BME280;6540;50.858;7.232;2024-01-10T04:00:45;52011.91;;;-142.34;30.55
12951;BME280;6540;50.858;7.232;2024-01-10T04:03:10;51983.66;;;-142.34;30.79
12951;BME280;6540;50.858;7.232;2024-01-10T04:05:36;52028.03;;;-142.34;30.77
12951;BME280;6540;50.858;7.232;2024-01-10T04:08:01;52005.84;;;-142.34;29.58
12951;BME280;6540;50.858;7.232;2024-01-10T04:10:27;52026.03;;;-142.34;30.94
12951;BME280;6540;50.858;7.232;2024-01-10T04:12:53;52019.97;;;-142.34;30.85
12951;BME280;6540;50.858;7.232;2024-01-10T04:15:18;52015.94;;;-142.34;32.82
12951;BME280;6540;50.858;7.232;2024-01-10T04:17:43;51975.59;;;-142.34;31.20
12951;BME280;6540;50.858;7.232;2024-01-10T04:20:09;52003.81;;;-142.34;30.79
12951;BME280;6540;50.858;7.232;2024-01-10T04:22:35;51985.66;;;-142.34;31.92
12951;BME280;6540;50.858;7.232;2024-01-10T04:25:01;52034.09;;;-142.34;32.33
12951;BME280;6540;50.858;7.232;2024-01-10T04:27:27;52030.06;;;-142.34;32.28
12951;BME280;6540;50.858;7.232;2024-01-10T04:29:53;51971.53;;;-142.34;32.17
12951;BME280;6540;50.858;7.232;2024-01-10T04:32:18;52005.84;;;-142.34;31.99
12951;BME280;6540;50.858;7.232;2024-01-10T04:34:43;51979.63;;;-142.34;31.67
12951;BME280;6540;50.858;7.232;2024-01-10T04:37:09;52044.19;;;-142.34;31.91
12951;BME280;6540;50.858;7.232;2024-01-10T04:39:35;51987.69;;;-142.34;30.88
12951;BME280;6540;50.858;7.232;2024-01-10T04:42:01;51977.59;;;-142.34;30.65
12951;BME280;6540;50.858;7.232;2024-01-10T04:44:26;51981.63;;;-142.34;31.43
12951;BME280;6540;50.858;7.232;2024-01-10T04:46:51;51987.69;;;-142.34;30.87
12951;BME280;6540;50.858;7.232;2024-01-10T04:49:17;52021.97;;;-142.34;33.57
12951;BME280;6540;50.858;7.232;2024-01-10T04:51:42;52015.94;;;-142.34;31.84
12951;BME280;6540;50.858;7.232;2024-01-10T04:54:08;51993.75;;;-142.34;31.42
12951;BME280;6540;50.858;7.232;2024-01-10T04:56:34;52003.81;;;-142.34;32.09
12951;BME280;6540;50.858;7.232;2024-01-10T04:59:01;52015.94;;;-142.34;33.35
12951;BME280;6540;50.858;7.232;2024-01-10T05:01:27;51991.72;;;-142.34;34.43
12951;BME280;6540;50.858;7.232;2024-01-10T05:03:52;51981.63;;;-142.34;34.00
12951;BME280;6540;50.858;7.232;2024-01-10T05:06:17;51975.59;;;-142.34;35.31
12951;BME280;6540;50.858;7.232;2024-01-10T05:08:43;51977.59;;;-142.34;34.61
12951;BME280;6540;50.858;7.232;2024-01-10T05:11:08;51961.47;;;-142.34;33.63
12951;BME280;6540;50.858;7.232;2024-01-10T05:13:33;51965.50;;;-142.34;33.81
12951;BME280;6540;50.858;7.232;2024-01-10T05:15:59;51977.59;;;-142.34;35.62
12951;BME280;6540;50.858;7.232;2024-01-10T05:18:24;51999.78;;;-142.34;34.47
12951;BME280;6540;50.858;7.232;2024-01-10T05:20:49;51971.53;;;-142.34;34.98
12951;BME280;6540;50.858;7.232;2024-01-10T05:23:15;51975.59;;;-142.34;35.52
12951;BME280;6540;50.858;7.232;2024-01-10T05:25:40;51973.56;;;-142.34;35.68
12951;BME280;6540;50.858;7.232;2024-01-10T05:28:06;51971.53;;;-142.34;35.25
12951;BME280;6540;50.858;7.232;2024-01-10T05:30:31;51943.31;;;-142.34;34.71
12951;BME280;6540;50.858;7.232;2024-01-10T05:32:57;51943.31;;;-142.34;34.75
12951;BME280;6540;50.858;7.232;2024-01-10T05:35:24;51943.31;;;-142.34;34.00
12951;BME280;6540;50.858;7.232;2024-01-10T05:37:51;51957.44;;;-142.34;33.71
12951;BME280;6540;50.858;7.232;2024-01-10T05:40:16;51955.41;;;-142.34;34.64
12951;BME280;6540;50.858;7.232;2024-01-10T05:42:42;51955.41;;;-142.34;34.33
12951;BME280;6540;50.858;7.232;2024-01-10T05:45:07;51953.41;;;-142.34;35.01
12951;BME280;6540;50.858;7.232;2024-01-10T05:47:33;51975.59;;;-142.34;34.06
12951;BME280;6540;50.858;7.232;2024-01-10T05:49:58;51951.38;;;-142.34;33.98
12951;BME280;6540;50.858;7.232;2024-01-10T05:52:23;51955.41;;;-142.34;34.07
12951;BME280;6540;50.858;7.232;2024-01-10T05:54:49;51973.56;;;-142.34;35.23
12951;BME280;6540;50.858;7.232;2024-01-10T05:57:14;51991.72;;;-142.34;35.52
12951;BME280;6540;50.858;7.232;2024-01-10T05:59:40;51943.31;;;-142.34;34.73
12951;BME280;6540;50.858;7.232;2024-01-10T06:02:05;51963.47;;;-142.34;34.87
12951;BME280;6540;50.858;7.232;2024-01-10T06:04:31;51983.66;;;-142.34;34.63
12951;BME280;6540;50.858;7.232;2024-01-10T06:07:00;51896.91;;;-142.34;34.19
12951;BME280;6540;50.858;7.232;2024-01-10T06:09:25;51939.28;;;-142.34;35.91
12951;BME280;6540;50.858;7.232;2024-01-10T06:11:51;51925.16;;;-142.34;35.65
12951;BME280;6540;50.858;7.232;2024-01-10T06:14:18;51935.25;;;-142.34;34.38
12951;BME280;6540;50.858;7.232;2024-01-10T06:16:44;51915.06;;;-142.34;33.73
12951;BME280;6540;50.858;7.232;2024-01-10T06:19:10;51898.94;;;-142.34;33.68
12951;BME280;6540;50.858;7.232;2024-01-10T06:21:36;51953.41;;;-142.34;35.08
12951;BME280;6540;50.858;7.232;2024-01-10T06:24:02;51955.41;;;-142.34;34.99
12951;BME280;6540;50.858;7.232;2024-01-10T06:26:27;51925.16;;;-142.34;34.23
12951;BME280;6540;50.858;7.232;2024-01-10T06:28:53;51953.41;;;-142.34;32.26
12951;BME280;6540;50.858;7.232;2024-01-10T06:31:18;51931.19;;;-142.34;33.15
12951;BME280;6540;50.858;7.232;2024-01-10T06:33:43;51933.22;;;-142.34;32.91
12951;BME280;6540;50.858;7.232;2024-01-10T06:36:09;51979.63;;;-142.34;32.93
12951;BME280;6540;50.858;7.232;2024-01-10T06:38:34;51963.47;;;-142.34;31.58
12951;BME280;6540;50.858;7.232;2024-01-10T06:40:59;51971.53;;;-142.34;30.95
12951;BME280;6540;50.858;7.232;2024-01-10T06:43:25;51963.47;;;-142.34;30.94
12951;BME280;6540;50.858;7.232;2024-01-10T06:45:50;51971.53;;;-142.34;31.35
12951;BME280;6540;50.858;7.232;2024-01-10T06:48:15;51959.44;;;-142.34;33.12
12951;BME280;6540;50.858;7.232;2024-01-10T06:50:41;51979.63;;;-142.34;33.13
12951;BME280;6540;50.858;7.232;2024-01-10T06:53:06;51945.31;;;-142.34;32.50
12951;BME280;6540;50.858;7.232;2024-01-10T06:55:32;51987.69;;;-142.34;31.47
12951;BME280;6540;50.858;7.232;2024-01-10T06:57:58;51963.47;;;-142.34;31.40
12951;BME280;6540;50.858;7.232;2024-01-10T07:00:23;51963.47;;;-142.34;30.89
12951;BME280;6540;50.858;7.232;2024-01-10T07:02:49;51945.31;;;-142.34;31.37
12951;BME280;6540;50.858;7.232;2024-01-10T07:05:14;51977.59;;;-142.34;30.67
12951;BME280;6540;50.858;7.232;2024-01-10T07:07:40;51967.50;;;-142.34;30.58
12951;BME280;6540;50.858;7.232;2024-01-10T07:10:06;51999.78;;;-142.34;31.57
12951;BME280;6540;50.858;7.232;2024-01-10T07:12:33;51941.28;;;-142.34;30.99
12951;BME280;6540;50.858;7.232;2024-01-10T07:14:59;51983.66;;;-142.34;31.18
12951;BME280;6540;50.858;7.232;2024-01-10T07:17:24;51965.50;;;-142.34;30.95
12951;BME280;6540;50.858;7.232;2024-01-10T07:19:49;52013.91;;;-142.34;32.42
12951;BME280;6540;50.858;7.232;2024-01-10T07:22:15;51967.50;;;-142.34;30.82
12951;BME280;6540;50.858;7.232;2024-01-10T07:24:40;51983.66;;;-142.34;31.62
12951;BME280;6540;50.858;7.232;2024-01-10T07:27:08;51949.34;;;-142.34;31.10
12951;BME280;6540;50.858;7.232;2024-01-10T07:29:37;51977.59;;;-142.34;31.23
12951;BME280;6540;50.858;7.232;2024-01-10T07:32:03;52003.81;;;-142.34;30.65
12951;BME280;6540;50.858;7.232;2024-01-10T07:34:28;51955.41;;;-142.34;30.36
12951;BME280;6540;50.858;7.232;2024-01-10T07:36:54;52007.84;;;-142.34;30.82
12951;BME280;6540;50.858;7.232;2024-01-10T07:39:19;51979.63;;;-142.34;30.71
12951;BME280;6540;50.858;7.232;2024-01-10T07:41:44;51951.38;;;-142.34;30.17
12951;BME280;6540;50.858;7.232;2024-01-10T07:44:10;51971.53;;;-142.34;30.72
12951;BME280;6540;50.858;7.232;2024-01-10T07:46:35;51987.69;;;-142.34;32.87
12951;BME280;6540;50.858;7.232;2024-01-10T07:49:03;52001.81;;;-142.34;31.53
12951;BME280;6540;50.858;7.232;2024-01-10T07:51:30;52001.81;;;-142.34;31.40
12951;BME280;6540;50.858;7.232;2024-01-10T07:53:55;52007.84;;;-142.34;29.61
12951;BME280;6540;50.858;7.232;2024-01-10T07:56:24;51959.44;;;-142.34;31.36
12951;BME280;6540;50.858;7.232;2024-01-10T07:58:49;51987.69;;;-142.34;30.65
12951;BME280;6540;50.858;7.232;2024-01-10T08:01:15;51979.63;;;-142.34;30.80
12951;BME280;6540;50.858;7.232;2024-01-10T08:03:40;51947.34;;;-142.34;30.71
12951;BME280;6540;50.858;7.232;2024-01-10T08:06:06;51997.78;;;-142.34;30.89
12951;BME280;6540;50.858;7.232;2024-01-10T08:08:31;52048.22;;;-142.34;30.48
12951;BME280;6540;50.858;7.232;2024-01-10T08:10:56;52003.81;;;-142.34;30.65
12951;BME280;6540;50.858;7.232;2024-01-10T08:13:22;51983.66;;;-142.34;30.56
12951;BME280;6540;50.858;7.232;2024-01-10T08:15:47;52003.81;;;-142.34;30.00
12951;BME280;6540;50.858;7.232;2024-01-10T08:18:12;52017.94;;;-142.34;29.83
12951;BME280;6540;50.858;7.232;2024-01-10T08:20:39;51983.66;;;-142.34;30.60
12951;BME280;6540;50.858;7.232;2024-01-10T08:23:05;51975.59;;;-142.34;30.82
12951;BME280;6540;50.858;7.232;2024-01-10T08:25:30;52007.84;;;-142.34;30.30
12951;BME280;6540;50.858;7.232;2024-01-10T08:27:56;51993.75;;;-142.34;30.38
12951;BME280;6540;50.858;7.232;2024-01-10T08:30:23;52011.91;;;-142.34;30.69
12951;BME280;6540;50.858;7.232;2024-01-10T08:32:48;51995.75;;;-142.34;31.01
12951;BME280;6540;50.858;7.232;2024-01-10T08:35:14;51965.50;;;-142.34;31.37
12951;BME280;6540;50.858;7.232;2024-01-10T08:37:39;52026.03;;;-142.34;31.94
12951;BME280;6540;50.858;7.232;2024-01-10T08:40:11;51987.69;;;-142.34;31.62
12951;BME280;6540;50.858;7.232;2024-01-10T08:42:37;51991.72;;;-142.34;32.74
12951;BME280;6540;50.858;7.232;2024-01-10T08:45:03;51999.78;;;-142.34;33.94
12951;BME280;6540;50.858;7.232;2024-01-10T08:47:32;51991.72;;;-142.34;33.96
12951;BME280;6540;50.858;7.232;2024-01-10T08:50:00;51987.69;;;-142.34;34.07
12951;BME280;6540;50.858;7.232;2024-01-10T08:52:25;51975.59;;;-142.34;33.23
12951;BME280;6540;50.858;7.232;2024-01-10T08:54:51;51993.75;;;-142.34;32.94
12951;BME280;6540;50.858;7.232;2024-01-10T08:57:16;52030.06;;;-142.34;33.02
12951;BME280;6540;50.858;7.232;2024-01-10T08:59:42;51967.50;;;-142.34;31.62
12951;BME280;6540;50.858;7.232;2024-01-10T09:02:07;51979.63;;;-142.34;31.58
12951;BME280;6540;50.858;7.232;2024-01-10T09:04:33;52005.84;;;-142.34;31.62
12951;BME280;6540;50.858;7.232;2024-01-10T09:06:58;52015.94;;;-142.34;31.50
12951;BME280;6540;50.858;7.232;2024-01-10T09:09:23;51979.63;;;-142.34;32.86
12951;BME280;6540;50.858;7.232;2024-01-10T09:11:49;51999.78;;;-142.34;31.50
12951;BME280;6540;50.858;7.232;2024-01-10T09:14:14;51987.69;;;-142.34;31.17
12951;BME280;6540;50.858;7.232;2024-01-10T09:16:40;52038.13;;;-142.34;31.11
12951;BME280;6540;50.858;7.232;2024-01-10T09:19:05;52032.06;;;-142.34;30.26
12951;BME280;6540;50.858;7.232;2024-01-10T09:21:31;52019.97;;;-142.34;30.59
12951;BME280;6540;50.858;7.232;2024-01-10T09:23:56;51965.50;;;-142.34;30.64
12951;BME280;6540;50.858;7.232;2024-01-10T09:26:22;52024.00;;;-142.34;30.72
12951;BME280;6540;50.858;7.232;2024-01-10T09:28:48;52011.91;;;-142.34;30.70
12951;BME280;6540;50.858;7.232;2024-01-10T09:31:13;52013.91;;;-142.34;30.49
12951;BME280;6540;50.858;7.232;2024-01-10T09:33:38;52034.09;;;-142.34;29.98
12951;BME280;6540;50.858;7.232;2024-01-10T09:36:07;52024.00;;;-142.34;29.80
12951;BME280;6540;50.858;7.232;2024-01-10T09:38:37;52005.84;;;-142.34;29.66
12951;BME280;6540;50.858;7.232;2024-01-10T09:41:04;52011.91;;;-142.34;29.85
12951;BME280;6540;50.858;7.232;2024-01-10T09:43:31;52021.97;;;-142.34;29.67
12951;BME280;6540;50.858;7.232;2024-01-10T09:46:00;51999.78;;;-142.34;30.17
12951;BME280;6540;50.858;7.232;2024-01-10T09:48:25;52017.94;;;-142.34;31.01
12951;BME280;6540;50.858;7.232;2024-01-10T09:50:51;52015.94;;;-142.34;30.51
12951;BME280;6540;50.858;7.232;2024-01-10T09:53:24;51999.78;;;-142.34;29.24
12951;BME280;6540;50.858;7.232;2024-01-10T09:55:49;52019.97;;;-142.34;30.36
12951;BME280;6540;50.858;7.232;2024-01-10T09:58:16;52003.81;;;-142.34;29.77
12951;BME280;6540;50.858;7.232;2024-01-10T10:00:44;52019.97;;;-142.34;29.06
12951;BME280;6540;50.858;7.232;2024-01-10T10:03:10;51973.56;;;-142.34;30.08
12951;BME280;6540;50.858;7.232;2024-01-10T10:05:36;52001.81;;;-142.34;30.10
12951;BME280;6540;50.858;7.232;2024-01-10T10:08:02;51983.66;;;-142.34;30.26
12951;BME280;6540;50.858;7.232;2024-01-10T10:10:31;51993.75;;;-142.34;30.41
12951;BME280;6540;50.858;7.232;2024-01-10T10:12:56;52040.13;;;-142.34;30.07
12951;BME280;6540;50.858;7.232;2024-01-10T10:15:22;52040.13;;;-142.34;29.59
12951;BME280;6540;50.858;7.232;2024-01-10T10:17:49;52032.06;;;-142.34;29.89
12951;BME280;6540;50.858;7.232;2024-01-10T10:20:22;52062.34;;;-142.34;29.51
12951;BME280;6540;50.858;7.232;2024-01-10T10:25:31;52036.09;;;-142.34;29.92
12951;BME280;6540;50.858;7.232;2024-01-10T10:28:00;52052.25;;;-142.34;29.92
12951;BME280;6540;50.858;7.232;2024-01-10T10:30:27;52003.81;;;-142.34;30.20
12951;BME280;6540;50.858;7.232;2024-01-10T10:32:52;52032.06;;;-142.34;30.23
12951;BME280;6540;50.858;7.232;2024-01-10T10:35:19;52044.19;;;-142.34;29.97
12951;BME280;6540;50.858;7.232;2024-01-10T10:37:45;52003.81;;;-142.34;29.88
12951;BME280;6540;50.858;7.232;2024-01-10T10:40:11;52056.28;;;-142.34;30.11
12951;BME280;6540;50.858;7.232;2024-01-10T10:42:40;52024.00;;;-142.34;30.30
12951;BME280;6540;50.858;7.232;2024-01-10T10:45:09;52019.97;;;-142.34;29.67
12951;BME280;6540;50.858;7.232;2024-01-10T10:47:39;52080.50;;;-142.34;30.17
12951;BME280;6540;50.858;7.232;2024-01-10T10:50:11;52068.38;;;-142.34;29.18
12951;BME280;6540;50.858;7.232;2024-01-10T10:52:39;52007.84;;;-142.34;29.55
12951;BME280;6540;50.858;7.232;2024-01-10T10:55:09;52034.09;;;-142.34;29.47
12951;BME280;6540;50.858;7.232;2024-01-10T10:57:37;52024.00;;;-142.34;29.95
12951;BME280;6540;50.858;7.232;2024-01-10T11:00:04;52068.38;;;-142.34;28.86
12951;BME280;6540;50.858;7.232;2024-01-10T11:02:32;52068.38;;;-142.34;29.07
12951;BME280;6540;50.858;7.232;2024-01-10T11:04:58;52068.38;;;-142.34;29.58
12951;BME280;6540;50.858;7.232;2024-01-10T11:07:24;52054.25;;;-142.34;29.65
12951;BME280;6540;50.858;7.232;2024-01-10T11:09:50;52048.22;;;-142.34;30.03
12951;BME280;6540;50.858;7.232;2024-01-10T11:12:50;52019.97;;;-142.34;29.63
12951;BME280;6540;50.858;7.232;2024-01-10T11:20:47;52096.63;;;-142.34;28.77
12951;BME280;6540;50.858;7.232;2024-01-10T11:25:42;52084.53;;;-142.34;28.07
12951;BME280;6540;50.858;7.232;2024-01-10T11:28:07;52032.06;;;-142.34;28.58
12951;BME280;6540;50.858;7.232;2024-01-10T11:30:36;52062.34;;;-142.34;27.88
12951;BME280;6540;50.858;7.232;2024-01-10T11:38:38;52064.34;;;-142.34;27.97
12951;BME280;6540;50.858;7.232;2024-01-10T11:41:04;52042.16;;;-142.34;28.25
12951;BME280;6540;50.858;7.232;2024-01-10T11:43:33;52034.09;;;-142.34;27.10
12951;BME280;6540;50.858;7.232;2024-01-10T11:46:00;52068.38;;;-142.34;27.41
12951;BME280;6540;50.858;7.232;2024-01-10T11:48:27;52032.06;;;-142.34;27.42
12951;BME280;6540;50.858;7.232;2024-01-10T11:50:54;52011.91;;;-142.34;27.22
12951;BME280;6540;50.858;7.232;2024-01-10T11:53:44;52046.19;;;-142.34;26.59
12951;BME280;6540;50.858;7.232;2024-01-10T11:56:15;52070.41;;;-142.34;27.27
12951;BME280;6540;50.858;7.232;2024-01-10T11:59:01;52028.03;;;-142.34;26.73
12951;BME280;6540;50.858;7.232;2024-01-10T12:01:28;52044.19;;;-142.34;26.39
12951;BME280;6540;50.858;7.232;2024-01-10T12:03:55;52084.53;;;-142.34;26.86
12951;BME280;6540;50.858;7.232;2024-01-10T12:06:22;52036.09;;;-142.34;27.49
12951;BME280;6540;50.858;7.232;2024-01-10T12:08:48;52040.13;;;-142.34;27.15
12951;BME280;6540;50.858;7.232;2024-01-10T12:11:14;52054.25;;;-142.34;27.02
12951;BME280;6540;50.858;7.232;2024-01-10T12:13:41;52044.19;;;-142.34;27.07
12951;BME280;6540;50.858;7.232;2024-01-10T12:16:06;52066.38;;;-142.34;27.32
12951;BME280;6540;50.858;7.232;2024-01-10T12:18:31;52019.97;;;-142.34;27.12
12951;BME280;6540;50.858;7.232;2024-01-10T12:20:57;52052.25;;;-142.34;26.68
12951;BME280;6540;50.858;7.232;2024-01-10T12:23:22;52088.56;;;-142.34;26.04
12951;BME280;6540;50.858;7.232;2024-01-10T12:25:51;52038.13;;;-142.34;25.88
12951;BME280;6540;50.858;7.232;2024-01-10T12:28:16;52040.13;;;-142.34;25.72
12951;BME280;6540;50.858;7.232;2024-01-10T12:30:44;52007.84;;;-142.34;27.06
12951;BME280;6540;50.858;7.232;2024-01-10T12:33:09;52076.44;;;-142.34;26.75
12951;BME280;6540;50.858;7.232;2024-01-10T12:35:34;52058.28;;;-142.34;26.15
12951;BME280;6540;50.858;7.232;2024-01-10T12:38:00;52090.56;;;-142.34;26.06
12951;BME280;6540;50.858;7.232;2024-01-10T12:40:25;52068.38;;;-142.34;26.42
12951;BME280;6540;50.858;7.232;2024-01-10T12:43:07;52044.19;;;-142.34;25.65
12951;BME280;6540;50.858;7.232;2024-01-10T12:45:34;52056.28;;;-142.34;25.60
12951;BME280;6540;50.858;7.232;2024-01-10T12:48:00;52100.66;;;-142.34;25.72
12951;BME280;6540;50.858;7.232;2024-01-10T12:50:25;52044.19;;;-142.34;26.78
12951;BME280;6540;50.858;7.232;2024-01-10T12:52:51;52056.28;;;-142.34;26.44
12951;BME280;6540;50.858;7.232;2024-01-10T12:55:16;52048.22;;;-142.34;26.60
12951;BME280;6540;50.858;7.232;2024-01-10T12:57:43;52048.22;;;-142.34;26.51
12951;BME280;6540;50.858;7.232;2024-01-10T13:00:12;52052.25;;;-142.34;26.39